Time;durP1;ratioP1;P1;durP2;ratioP2;P2;SDS_P1;SDS_P2;PMS_P1;PMS_P2;Temp;Humidity;BMP_temperature;BMP_pressure;BME280_temperature;BME280_humidity;BME280_pressure;Samples;Min_cycle;Max_cycle;Signal;HPM_P1;HPM_P2
2021/05/09 00:02:22;;;;;;;4.68;3.03;;;10.60;99.90;;;;;;5083186;28;20100;-72
2021/05/09 00:04:47;;;;;;;3.15;2.78;;;10.50;99.90;;;;;;5089004;28;20368;-73
2021/05/09 00:07:13;;;;;;;3.90;2.92;;;10.40;99.90;;;;;;5082575;28;20077;-72
2021/05/09 00:09:38;;;;;;;5.45;3.20;;;10.30;99.90;;;;;;5086335;28;20027;-73
2021/05/09 00:12:05;;;;;;;3.40;3.03;;;10.20;99.90;;;;;;5091362;28;20020;-72
2021/05/09 00:14:31;;;;;;;4.28;2.95;;;10.10;99.90;;;;;;5087599;28;20020;-72
2021/05/09 00:16:56;;;;;;;3.35;3.00;;;10.10;99.90;;;;;;5091287;28;20047;-73
2021/05/09 00:19:22;;;;;;;4.78;3.78;;;10.10;99.90;;;;;;5086262;28;20486;-73
2021/05/09 00:21:47;;;;;;;4.00;3.20;;;10.00;99.90;;;;;;5085802;28;20023;-72
2021/05/09 00:24:13;;;;;;;3.10;2.80;;;10.00;99.90;;;;;;5085367;28;20099;-72
2021/05/09 00:26:38;;;;;;;3.75;3.20;;;9.90;99.90;;;;;;5087479;28;20471;-72
2021/05/09 00:29:04;;;;;;;3.88;2.80;;;9.90;99.90;;;;;;5090909;28;20118;-72
2021/05/09 00:31:30;;;;;;;3.85;2.90;;;9.80;99.90;;;;;;5087987;28;20063;-72
2021/05/09 00:33:55;;;;;;;3.03;2.72;;;9.70;99.90;;;;;;5089780;28;20024;-73
2021/05/09 00:36:21;;;;;;;3.63;2.80;;;9.70;99.90;;;;;;5083309;28;20048;-73
2021/05/09 00:38:46;;;;;;;3.70;2.90;;;9.60;99.90;;;;;;5087607;28;20028;-73
2021/05/09 00:41:12;;;;;;;3.35;2.95;;;9.70;99.90;;;;;;5087105;28;20104;-73
2021/05/09 00:43:37;;;;;;;3.13;2.83;;;9.70;99.90;;;;;;5091173;28;20020;-73
2021/05/09 00:46:03;;;;;;;2.90;2.70;;;9.70;99.90;;;;;;5082682;28;20016;-72
2021/05/09 00:48:28;;;;;;;3.33;3.03;;;9.70;99.90;;;;;;5084693;28;20023;-73
2021/05/09 00:50:54;;;;;;;3.17;2.70;;;9.70;99.90;;;;;;5083765;28;20047;-73
2021/05/09 00:53:23;;;;;;;3.40;3.10;;;9.70;99.90;;;;;;5086032;28;20016;-73
2021/05/09 00:55:50;;;;;;;3.78;2.90;;;9.80;99.90;;;;;;5086861;28;20052;-72
2021/05/09 00:58:17;;;;;;;4.60;2.83;;;9.80;99.90;;;;;;5085688;28;20028;-72
2021/05/09 01:00:45;;;;;;;2.80;2.60;;;9.70;99.90;;;;;;5074918;28;20028;-72
2021/05/09 01:03:12;;;;;;;4.72;3.00;;;9.70;99.90;;;;;;5074501;28;20052;-72
2021/05/09 01:05:37;;;;;;;3.08;2.88;;;9.70;99.90;;;;;;5079551;28;20069;-72
2021/05/09 01:08:04;;;;;;;3.53;3.20;;;9.70;99.90;;;;;;5082754;28;20041;-72
2021/05/09 01:10:30;;;;;;;3.80;3.25;;;9.60;99.90;;;;;;5074042;28;20074;-72
2021/05/09 01:12:56;;;;;;;3.03;2.83;;;9.60;99.90;;;;;;5074391;28;20036;-73
2021/05/09 01:15:22;;;;;;;4.07;2.65;;;9.60;99.90;;;;;;5079253;28;20027;-73
2021/05/09 01:17:48;;;;;;;4.75;3.42;;;9.50;99.90;;;;;;5094308;28;20107;-72
2021/05/09 01:20:13;;;;;;;4.85;3.40;;;9.40;99.90;;;;;;5094107;28;20107;-72
2021/05/09 01:22:39;;;;;;;5.10;3.33;;;9.30;99.90;;;;;;5082801;28;20020;-72
2021/05/09 01:25:06;;;;;;;3.20;2.90;;;9.30;99.90;;;;;;5091193;28;20028;-72
2021/05/09 01:27:32;;;;;;;3.15;2.85;;;9.30;99.90;;;;;;5094114;28;20024;-72
2021/05/09 01:29:58;;;;;;;5.65;3.00;;;9.40;99.90;;;;;;5092657;28;20020;-72
2021/05/09 01:32:23;;;;;;;3.20;2.90;;;9.30;99.90;;;;;;5092973;28;20506;-72
2021/05/09 01:34:49;;;;;;;3.40;3.10;;;9.20;99.90;;;;;;5075756;28;20029;-72
2021/05/09 01:37:15;;;;;;;3.53;2.95;;;9.10;99.90;;;;;;5072595;28;20395;-72
2021/05/09 01:39:40;;;;;;;3.88;3.20;;;9.10;99.90;;;;;;5073536;28;20032;-72
2021/05/09 01:42:06;;;;;;;4.85;3.40;;;9.10;99.90;;;;;;5073730;28;20023;-72
2021/05/09 01:44:31;;;;;;;4.47;3.20;;;9.00;99.90;;;;;;5077675;28;20096;-72
2021/05/09 01:46:57;;;;;;;4.18;3.30;;;9.10;99.90;;;;;;5093830;28;20107;-72
2021/05/09 01:49:22;;;;;;;3.60;3.30;;;9.00;99.90;;;;;;5076279;28;20398;-72
2021/05/09 01:51:49;;;;;;;3.45;3.15;;;8.90;99.90;;;;;;5073556;28;20032;-72
2021/05/09 01:54:14;;;;;;;4.57;3.42;;;8.90;99.90;;;;;;5087276;28;20020;-72
2021/05/09 01:56:40;;;;;;;3.60;3.00;;;8.90;99.90;;;;;;5073372;28;20490;-72
2021/05/09 01:59:07;;;;;;;4.22;3.20;;;8.90;99.90;;;;;;5077641;28;20456;-72
2021/05/09 02:01:33;;;;;;;3.97;3.28;;;8.80;99.90;;;;;;5092304;28;20024;-72
2021/05/09 02:03:59;;;;;;;3.45;2.95;;;8.70;99.90;;;;;;5075373;28;20401;-71
2021/05/09 02:06:24;;;;;;;4.07;3.10;;;8.80;99.90;;;;;;5071827;28;20390;-72
2021/05/09 02:08:50;;;;;;;4.10;3.05;;;8.70;99.90;;;;;;5086882;28;20029;-71
2021/05/09 02:11:15;;;;;;;3.22;2.88;;;8.80;99.90;;;;;;5084157;28;20032;-72
2021/05/09 02:13:41;;;;;;;3.85;3.47;;;8.80;99.90;;;;;;5093232;28;20099;-71
2021/05/09 02:16:06;;;;;;;3.97;3.63;;;8.70;99.90;;;;;;5092037;28;20051;-72
2021/05/09 02:18:32;;;;;;;3.50;3.20;;;8.50;99.90;;;;;;5087813;28;20074;-72
2021/05/09 02:20:57;;;;;;;4.20;3.20;;;8.40;99.90;;;;;;5083579;28;20027;-72
2021/05/09 02:23:23;;;;;;;4.20;3.35;;;8.40;99.90;;;;;;5079677;28;20501;-71
2021/05/09 02:25:48;;;;;;;5.40;3.40;;;8.50;99.90;;;;;;5091742;28;20075;-71
2021/05/09 02:28:14;;;;;;;4.82;4.13;;;8.40;99.90;;;;;;5088253;28;20479;-71
2021/05/09 02:30:39;;;;;;;5.60;5.10;;;8.30;99.90;;;;;;5072565;28;20029;-71
2021/05/09 02:33:09;;;;;;;4.25;3.30;;;8.30;99.90;;;;;;5086425;28;20082;-71
2021/05/09 02:35:35;;;;;;;5.72;3.42;;;8.30;99.90;;;;;;5083457;28;20111;-71
2021/05/09 02:38:00;;;;;;;3.45;3.15;;;8.40;99.90;;;;;;5092902;28;20099;-71
2021/05/09 02:40:26;;;;;;;4.35;3.60;;;8.40;99.90;;;;;;5091298;28;20036;-71
2021/05/09 02:42:51;;;;;;;4.15;3.33;;;8.20;99.90;;;;;;5092796;28;20103;-71
2021/05/09 02:45:17;;;;;;;3.67;3.30;;;8.10;99.90;;;;;;5091467;28;20070;-71
2021/05/09 02:47:42;;;;;;;4.03;3.55;;;8.10;99.90;;;;;;5075834;28;20024;-72
2021/05/09 02:50:10;;;;;;;3.53;3.22;;;8.00;99.90;;;;;;5072269;28;20024;-72
2021/05/09 02:52:36;;;;;;;3.78;3.42;;;8.00;99.90;;;;;;5085836;28;20028;-73
2021/05/09 02:55:02;;;;;;;4.93;3.22;;;8.10;99.90;;;;;;5083527;28;20027;-72
2021/05/09 02:57:27;;;;;;;4.30;3.05;;;8.10;99.90;;;;;;5073155;28;20024;-72
2021/05/09 02:59:53;;;;;;;4.72;3.50;;;8.10;99.90;;;;;;5082004;28;20061;-72
2021/05/09 03:02:18;;;;;;;5.80;3.28;;;8.20;99.90;;;;;;5074295;28;20514;-71
2021/05/09 03:04:44;;;;;;;3.47;3.17;;;8.20;99.90;;;;;;5072171;28;20024;-72
2021/05/09 03:07:09;;;;;;;4.05;3.30;;;8.10;99.90;;;;;;5071952;28;20052;-72
2021/05/09 03:09:35;;;;;;;3.40;3.10;;;8.10;99.90;;;;;;5071763;28;20083;-72
2021/05/09 03:12:01;;;;;;;3.50;3.20;;;8.10;99.90;;;;;;5072056;28;20033;-72
2021/05/09 03:14:27;;;;;;;4.43;3.17;;;8.10;99.90;;;;;;5071898;28;20024;-72
2021/05/09 03:16:53;;;;;;;3.42;3.13;;;8.00;99.90;;;;;;5072101;28;20510;-72
2021/05/09 03:19:18;;;;;;;4.00;3.70;;;8.10;99.90;;;;;;5071281;28;20021;-71
2021/05/09 03:21:44;;;;;;;3.53;3.05;;;8.10;99.90;;;;;;5089372;28;20124;-71
2021/05/09 03:24:10;;;;;;;3.55;3.25;;;8.00;99.90;;;;;;5092092;28;20564;-71
2021/05/09 03:26:36;;;;;;;3.55;3.22;;;8.00;99.90;;;;;;5091976;28;20023;-71
2021/05/09 03:29:02;;;;;;;3.60;3.30;;;7.70;99.90;;;;;;5091961;28;20730;-71
2021/05/09 03:31:27;;;;;;;3.35;3.05;;;7.60;99.90;;;;;;5091930;28;20031;-71
2021/05/09 03:33:53;;;;;;;3.75;3.45;;;7.60;99.90;;;;;;5090723;28;20024;-71
2021/05/09 03:36:18;;;;;;;4.75;3.47;;;7.70;99.90;;;;;;5091828;28;20391;-71
2021/05/09 03:38:44;;;;;;;4.05;3.65;;;7.60;99.90;;;;;;5091785;28;20686;-72
2021/05/09 03:41:09;;;;;;;4.40;3.60;;;7.60;99.90;;;;;;5088787;28;20028;-73
2021/05/09 03:43:35;;;;;;;4.22;3.45;;;7.50;99.90;;;;;;5071620;28;20377;-72
2021/05/09 03:46:00;;;;;;;4.97;3.55;;;7.50;99.90;;;;;;5071546;28;20043;-71
2021/05/09 03:48:26;;;;;;;4.20;3.80;;;7.50;99.90;;;;;;5071543;28;20506;-71
2021/05/09 03:50:51;;;;;;;4.40;3.60;;;7.30;99.90;;;;;;5086201;28;20045;-71
2021/05/09 03:53:17;;;;;;;5.10;3.25;;;7.30;99.90;;;;;;5081652;28;20369;-71
2021/05/09 03:55:43;;;;;;;5.30;3.92;;;7.30;99.90;;;;;;5071449;28;20105;-71
2021/05/09 03:58:08;;;;;;;4.07;3.65;;;7.30;99.90;;;;;;5080355;28;20038;-71
2021/05/09 04:00:34;;;;;;;4.00;3.65;;;7.10;99.90;;;;;;5077871;28;20490;-71
2021/05/09 04:02:59;;;;;;;4.32;3.92;;;7.20;99.90;;;;;;5091642;28;20071;-72
2021/05/09 04:05:25;;;;;;;4.10;3.75;;;7.10;99.90;;;;;;5091579;28;20036;-71
2021/05/09 04:07:50;;;;;;;4.35;3.63;;;7.00;99.90;;;;;;5090119;28;20111;-71
2021/05/09 04:10:16;;;;;;;4.10;3.70;;;7.20;99.90;;;;;;5091327;28;20039;-71
2021/05/09 04:12:42;;;;;;;3.97;3.63;;;7.20;99.90;;;;;;5091525;28;20016;-72
2021/05/09 04:15:08;;;;;;;3.60;3.30;;;7.10;99.90;;;;;;5091476;28;20036;-72
2021/05/09 04:17:34;;;;;;;3.92;3.53;;;7.10;99.90;;;;;;5091419;28;20090;-72
2021/05/09 04:19:59;;;;;;;3.70;3.40;;;7.20;99.90;;;;;;5077795;28;20024;-72
2021/05/09 04:22:25;;;;;;;3.97;3.60;;;7.20;99.90;;;;;;5091524;28;20044;-72
2021/05/09 04:24:50;;;;;;;3.95;3.65;;;7.10;99.90;;;;;;5073859;28;20067;-72
2021/05/09 04:27:16;;;;;;;3.42;3.13;;;7.20;99.90;;;;;;5080690;28;20398;-72
2021/05/09 04:29:41;;;;;;;4.25;3.50;;;7.10;99.90;;;;;;5074990;28;20085;-73
2021/05/09 04:32:07;;;;;;;4.03;3.70;;;7.30;99.90;;;;;;5073624;28;20036;-72
2021/05/09 04:34:32;;;;;;;4.65;3.80;;;7.40;99.90;;;;;;5091188;28;20494;-71
2021/05/09 04:36:58;;;;;;;4.00;3.60;;;7.40;99.90;;;;;;5093899;28;20028;-72
2021/05/09 04:39:24;;;;;;;3.70;3.35;;;7.50;99.90;;;;;;5077737;28;20085;-71
2021/05/09 04:41:50;;;;;;;3.92;3.60;;;7.60;99.90;;;;;;5074854;28;20632;-71
2021/05/09 04:44:16;;;;;;;4.70;4.18;;;7.60;99.90;;;;;;5088260;28;20031;-71
2021/05/09 04:46:42;;;;;;;8.32;6.15;;;7.80;99.90;;;;;;5074747;28;20020;-72
2021/05/09 04:49:08;;;;;;;9.38;6.90;;;7.90;99.90;;;;;;5074460;28;20032;-71
2021/05/09 04:51:33;;;;;;;4.13;3.78;;;8.00;99.90;;;;;;5083976;28;20484;-72
2021/05/09 04:53:59;;;;;;;4.43;3.80;;;8.00;99.90;;;;;;5079018;28;20028;-71
2021/05/09 04:56:25;;;;;;;12.52;7.88;;;8.30;99.90;;;;;;5083268;28;20035;-72
2021/05/09 04:58:50;;;;;;;4.72;4.10;;;8.30;99.90;;;;;;5079202;28;20039;-71
2021/05/09 05:01:16;;;;;;;5.70;3.75;;;8.50;99.90;;;;;;5082839;28;20032;-72
2021/05/09 05:03:44;;;;;;;4.45;3.30;;;8.70;99.90;;;;;;5091822;28;20069;-72
2021/05/09 05:06:09;;;;;;;5.82;3.55;;;8.80;99.90;;;;;;5083071;28;20035;-74
2021/05/09 05:08:35;;;;;;;3.60;3.30;;;8.90;99.90;;;;;;5094675;28;20029;-72
2021/05/09 05:11:02;;;;;;;3.83;3.33;;;9.00;99.90;;;;;;5085831;28;20411;-72
2021/05/09 05:13:32;;;;;;;3.45;3.03;;;9.10;99.90;;;;;;5074329;28;20020;-71
2021/05/09 05:16:03;;;;;;;3.55;3.25;;;9.20;99.90;;;;;;5074072;28;20398;-71
2021/05/09 05:18:29;;;;;;;3.50;3.20;;;9.40;99.90;;;;;;5072808;28;20032;-71
2021/05/09 05:21:01;;;;;;;3.88;3.20;;;9.50;99.90;;;;;;5073863;28;20020;-72
2021/05/09 05:23:26;;;;;;;3.65;3.20;;;9.70;99.90;;;;;;5074289;28;20077;-71
2021/05/09 05:25:52;;;;;;;3.70;3.22;;;9.80;99.90;;;;;;5074182;28;20547;-71
2021/05/09 05:28:17;;;;;;;4.53;3.28;;;9.80;99.90;;;;;;5074001;28;20372;-71
2021/05/09 05:30:44;;;;;;;3.85;3.20;;;10.00;99.90;;;;;;5082491;28;20100;-71
2021/05/09 05:33:23;;;;;;;3.42;3.13;;;10.10;99.90;;;;;;5080460;28;20020;-71
2021/05/09 05:35:49;;;;;;;3.83;3.45;;;10.30;99.90;;;;;;5092447;28;20055;-71
2021/05/09 05:38:14;;;;;;;4.80;3.47;;;10.40;99.90;;;;;;5076658;28;20553;-71
2021/05/09 05:40:40;;;;;;;4.45;3.53;;;10.50;99.90;;;;;;5073527;28;20053;-71
2021/05/09 05:43:05;;;;;;;4.55;3.20;;;10.40;99.90;;;;;;5086921;28;20407;-71
2021/05/09 05:45:31;;;;;;;3.95;3.10;;;10.60;99.90;;;;;;5085371;28;20032;-71
2021/05/09 05:47:57;;;;;;;6.38;5.68;;;10.70;99.90;;;;;;5093816;28;20073;-71
2021/05/09 05:50:22;;;;;;;5.18;3.78;;;10.90;99.90;;;;;;5093681;28;20085;-71
2021/05/09 05:52:48;;;;;;;3.75;3.35;;;11.00;99.90;;;;;;5087897;28;20388;-71
2021/05/09 05:55:13;;;;;;;5.00;3.78;;;10.90;99.90;;;;;;5073485;28;20028;-71
2021/05/09 05:57:39;;;;;;;3.78;3.40;;;11.10;99.90;;;;;;5073302;28;20024;-71
2021/05/09 06:00:05;;;;;;;4.05;3.65;;;11.20;99.90;;;;;;5073176;28;20025;-71
2021/05/09 06:02:30;;;;;;;3.60;3.22;;;11.30;99.90;;;;;;5078780;28;20046;-72
2021/05/09 06:04:56;;;;;;;3.53;3.22;;;11.40;99.90;;;;;;5093605;28;20483;-72
2021/05/09 06:07:22;;;;;;;5.68;3.30;;;11.50;99.90;;;;;;5092507;28;20020;-72
2021/05/09 06:09:47;;;;;;;5.20;3.30;;;11.70;99.90;;;;;;5093279;28;20047;-72
2021/05/09 06:12:13;;;;;;;5.55;3.40;;;11.90;99.90;;;;;;5093348;28;20483;-72
2021/05/09 06:14:38;;;;;;;3.25;2.95;;;12.10;99.90;;;;;;5080059;28;20499;-73
2021/05/09 06:17:04;;;;;;;5.38;3.13;;;12.30;99.90;;;;;;5089281;28;20028;-71
2021/05/09 06:19:29;;;;;;;4.45;3.15;;;12.40;99.90;;;;;;5088274;28;20031;-72
2021/05/09 06:21:55;;;;;;;5.22;3.00;;;12.50;99.90;;;;;;5089349;28;20055;-72
2021/05/09 06:24:20;;;;;;;3.47;2.50;;;12.60;99.90;;;;;;5092692;28;20076;-72
2021/05/09 06:26:48;;;;;;;3.40;2.50;;;12.90;99.90;;;;;;5086394;28;20580;-72
2021/05/09 06:29:14;;;;;;;3.70;2.13;;;13.30;99.90;;;;;;5092442;28;20028;-72
2021/05/09 06:31:39;;;;;;;2.40;2.20;;;13.60;99.90;;;;;;5079236;28;20099;-72
2021/05/09 06:34:06;;;;;;;4.32;2.28;;;13.80;99.90;;;;;;5092968;28;20036;-71
2021/05/09 06:36:32;;;;;;;2.40;2.20;;;14.00;99.90;;;;;;5092871;28;20016;-72
2021/05/09 06:38:57;;;;;;;2.67;2.33;;;14.10;99.90;;;;;;5092714;28;20105;-72
2021/05/09 06:41:23;;;;;;;2.80;2.30;;;14.20;99.90;;;;;;5092612;28;20081;-72
2021/05/09 06:43:54;;;;;;;2.63;1.75;;;14.40;99.90;;;;;;5092786;28;20048;-72
2021/05/09 06:46:19;;;;;;;4.95;2.30;;;14.60;99.90;;;;;;5092634;28;20024;-72
2021/05/09 06:48:45;;;;;;;2.85;1.90;;;14.70;99.90;;;;;;5092992;28;20035;-72
2021/05/09 06:51:11;;;;;;;3.28;2.05;;;14.80;99.90;;;;;;5092488;28;20028;-72
2021/05/09 06:53:36;;;;;;;3.67;2.00;;;14.90;99.90;;;;;;5079095;28;20074;-72
2021/05/09 06:56:02;;;;;;;2.20;2.00;;;15.00;99.90;;;;;;5070755;28;20036;-74
2021/05/09 06:58:27;;;;;;;2.17;1.98;;;15.00;99.90;;;;;;5072245;28;20094;-74
2021/05/09 07:00:53;;;;;;;2.17;1.98;;;15.20;99.90;;;;;;5071826;28;20036;-72
2021/05/09 07:03:18;;;;;;;2.28;2.00;;;15.20;99.90;;;;;;5084365;28;20035;-72
2021/05/09 07:05:44;;;;;;;2.10;1.90;;;15.20;99.90;;;;;;5073011;28;20030;-72
2021/05/09 07:08:10;;;;;;;2.40;2.10;;;15.30;99.90;;;;;;5071899;28;20025;-76
2021/05/09 07:10:36;;;;;;;2.63;2.42;;;15.50;99.90;;;;;;5077467;28;20058;-72
2021/05/09 07:13:03;;;;;;;3.92;3.08;;;15.70;99.90;;;;;;5091476;28;20111;-72
2021/05/09 07:15:37;;;;;;;3.50;2.63;;;15.80;99.90;;;;;;5086360;28;20024;-72
2021/05/09 07:20:31;;;;;;;4.35;3.00;;;15.90;99.90;;;;;;5071797;28;20594;-72
2021/05/09 07:22:58;;;;;;;3.20;2.63;;;15.90;99.90;;;;;;5071784;28;20107;-73
2021/05/09 07:25:24;;;;;;;4.50;2.78;;;16.00;99.90;;;;;;5071813;28;20066;-73
2021/05/09 07:27:49;;;;;;;2.53;2.05;;;16.10;99.90;;;;;;5071691;28;20025;-72
2021/05/09 07:30:15;;;;;;;2.70;2.22;;;16.10;99.90;;;;;;5071475;28;20032;-72
2021/05/09 07:32:40;;;;;;;7.95;3.78;;;16.30;99.90;;;;;;5071731;28;20095;-73
2021/05/09 07:35:06;;;;;;;7.25;4.90;;;16.50;99.90;;;;;;5071790;28;20048;-72
2021/05/09 07:37:32;;;;;;;6.20;4.40;;;16.50;99.90;;;;;;5071715;28;20035;-72
2021/05/09 07:39:57;;;;;;;4.78;3.58;;;16.50;99.90;;;;;;5070392;28;20032;-72
2021/05/09 07:42:23;;;;;;;5.65;3.65;;;16.60;99.90;;;;;;5069959;28;20021;-72
2021/05/09 07:44:50;;;;;;;7.40;4.65;;;16.80;99.90;;;;;;5070657;28;20021;-72
2021/05/09 07:47:16;;;;;;;4.70;4.25;;;16.90;99.90;;;;;;5071544;28;20051;-72
2021/05/09 07:49:41;;;;;;;4.55;3.58;;;17.00;99.90;;;;;;5071373;28;20028;-72
2021/05/09 07:52:07;;;;;;;3.90;2.80;;;17.00;99.90;;;;;;5084726;28;20028;-72
2021/05/09 07:54:32;;;;;;;2.95;2.30;;;17.20;99.90;;;;;;5071520;28;20142;-72
2021/05/09 07:56:58;;;;;;;2.78;2.50;;;17.20;99.90;;;;;;5071808;28;20112;-72
2021/05/09 07:59:23;;;;;;;1.92;1.80;;;17.30;99.90;;;;;;5091351;28;20036;-73
2021/05/09 08:01:49;;;;;;;2.78;1.98;;;17.20;99.90;;;;;;5091713;28;20028;-72
2021/05/09 08:04:14;;;;;;;3.13;2.00;;;17.20;99.90;;;;;;5091801;28;20027;-73
2021/05/09 08:06:43;;;;;;;2.47;1.80;;;17.50;99.90;;;;;;5081606;28;20036;-73
2021/05/09 08:09:08;;;;;;;2.80;1.70;;;17.50;99.90;;;;;;5075338;28;20067;-72
2021/05/09 08:11:34;;;;;;;3.05;2.10;;;17.80;99.90;;;;;;5079829;28;20444;-73
2021/05/09 08:13:59;;;;;;;3.38;1.85;;;18.00;99.90;;;;;;5075427;28;20500;-71
2021/05/09 08:16:26;;;;;;;2.08;1.80;;;18.10;99.90;;;;;;5087920;28;20031;-70
2021/05/09 08:18:51;;;;;;;2.08;1.70;;;18.20;99.90;;;;;;5074303;28;20660;-72
2021/05/09 08:21:17;;;;;;;2.30;2.10;;;18.20;99.90;;;;;;5088874;28;20036;-70
2021/05/09 08:23:44;;;;;;;2.60;1.90;;;18.40;99.90;;;;;;5091458;28;20029;-72
2021/05/09 08:26:10;;;;;;;1.58;1.48;;;18.70;99.90;;;;;;5081896;28;20021;-72
2021/05/09 08:28:37;;;;;;;2.20;1.92;;;18.70;99.90;;;;;;5082485;28;20103;-71
2021/05/09 08:31:02;;;;;;;2.85;2.63;;;18.70;99.90;;;;;;5080444;28;20036;-71
2021/05/09 08:33:28;;;;;;;2.70;1.90;;;18.90;99.90;;;;;;5095370;28;20028;-71
2021/05/09 08:35:53;;;;;;;1.70;1.60;;;18.90;99.90;;;;;;5095159;28;20070;-71
2021/05/09 08:38:20;;;;;;;2.13;1.85;;;18.90;99.90;;;;;;5095216;28;20073;-72
2021/05/09 08:40:45;;;;;;;3.08;1.75;;;19.00;99.90;;;;;;5092990;28;20111;-72
2021/05/09 08:43:11;;;;;;;3.00;1.73;;;19.10;99.90;;;;;;5073479;28;20565;-72
2021/05/09 08:45:36;;;;;;;3.65;1.90;;;19.20;99.90;;;;;;5074687;28;20074;-71
2021/05/09 08:48:03;;;;;;;2.67;1.90;;;19.30;99.90;;;;;;5081533;28;20124;-71
2021/05/09 08:50:29;;;;;;;5.38;2.00;;;19.40;99.90;;;;;;5088795;28;20391;-72
2021/05/09 08:52:55;;;;;;;2.55;1.75;;;19.40;99.90;;;;;;5088233;28;20107;-71
2021/05/09 08:55:25;;;;;;;2.92;1.83;;;19.50;99.90;;;;;;5074622;28;20494;-72
2021/05/09 08:57:53;;;;;;;3.83;2.20;;;19.60;99.90;;;;;;5074410;28;20025;-72
2021/05/09 09:00:19;;;;;;;1.75;1.65;;;19.80;99.90;;;;;;5073011;28;20024;-72
2021/05/09 09:02:45;;;;;;;2.40;1.88;;;19.80;99.90;;;;;;5074555;28;20025;-72
2021/05/09 09:05:12;;;;;;;3.30;1.98;;;19.90;99.90;;;;;;5087974;28;20538;-72
2021/05/09 09:07:52;;;;;;;2.20;1.85;;;20.10;99.90;;;;;;5091414;28;20032;-72
2021/05/09 09:10:43;;;;;;;5.15;2.15;;;20.20;99.90;;;;;;5084160;28;20027;-72
2021/05/09 09:13:28;;;;;;;3.03;1.88;;;20.20;99.90;;;;;;5091283;28;20050;-72
2021/05/09 09:16:05;;;;;;;2.05;1.70;;;20.10;99.90;;;;;;5089600;28;20114;-72
2021/05/09 09:18:41;;;;;;;1.75;1.65;;;20.40;99.90;;;;;;5085431;28;20052;-72
2021/05/09 09:21:24;;;;;;;2.63;1.80;;;20.50;99.90;;;;;;5089401;28;20473;-72
2021/05/09 09:23:55;;;;;;;4.75;3.40;;;20.50;99.90;;;;;;5083213;28;20069;-71
2021/05/09 09:26:27;;;;;;;4.97;4.15;;;20.70;99.90;;;;;;5085712;28;20026;-72
2021/05/09 09:28:53;;;;;;;11.27;9.40;;;20.80;99.90;;;;;;5086711;28;20028;-72
2021/05/09 09:31:42;;;;;;;7.70;6.30;;;20.80;99.90;;;;;;5089322;28;20357;-72
2021/05/09 09:34:08;;;;;;;6.78;5.85;;;20.90;99.90;;;;;;5086205;28;20446;-72
2021/05/09 09:36:35;;;;;;;4.32;2.65;;;21.10;99.90;;;;;;5091634;28;20024;-72
2021/05/09 09:39:00;;;;;;;15.27;11.02;;;21.20;99.90;;;;;;5093300;28;20038;-72
2021/05/09 09:41:26;;;;;;;3.90;3.50;;;21.40;99.90;;;;;;5088482;28;20020;-72
2021/05/09 09:44:12;;;;;;;4.18;3.33;;;21.40;99.90;;;;;;5092872;28;20414;-72
2021/05/09 09:46:52;;;;;;;7.43;3.83;;;21.40;99.90;;;;;;5088435;28;20095;-72
2021/05/09 09:49:23;;;;;;;2.25;1.70;;;21.50;99.90;;;;;;5089422;28;20078;-72
2021/05/09 09:52:09;;;;;;;2.75;1.52;;;21.80;99.90;;;;;;5093086;28;20102;-72
2021/05/09 09:54:44;;;;;;;2.65;1.92;;;21.80;99.90;;;;;;5089143;28;20077;-72
2021/05/09 09:57:24;;;;;;;1.55;1.45;;;21.90;99.90;;;;;;5090509;28;20107;-72
2021/05/09 10:00:14;;;;;;;1.73;1.35;;;22.00;99.90;;;;;;5089964;28;20032;-72
2021/05/09 10:02:41;;;;;;;1.70;1.38;;;22.20;99.90;;;;;;5090615;28;20020;-72
2021/05/09 10:05:07;;;;;;;1.92;1.40;;;22.30;99.90;;;;;;5091573;28;20020;-72
2021/05/09 10:07:33;;;;;;;2.20;1.55;;;22.50;99.90;;;;;;5090841;28;20106;-73
2021/05/09 10:10:00;;;;;;;1.73;1.48;;;22.50;99.90;;;;;;5091511;28;20123;-72
2021/05/09 10:12:26;;;;;;;1.88;1.67;;;22.60;99.90;;;;;;5092328;28;20387;-72
2021/05/09 10:14:52;;;;;;;1.83;1.60;;;22.80;99.90;;;;;;5087276;28;20020;-72
2021/05/09 10:17:21;;;;;;;2.50;1.52;;;22.90;99.20;;;;;;5090411;28;20031;-72
2021/05/09 10:19:47;;;;;;;2.10;1.63;;;22.90;99.90;;;;;;5089465;28;20039;-72
2021/05/09 10:22:34;;;;;;;1.63;1.40;;;23.10;99.90;;;;;;5090199;28;20039;-72
2021/05/09 10:25:01;;;;;;;1.65;1.55;;;23.10;99.90;;;;;;5090676;28;20020;-72
2021/05/09 10:27:38;;;;;;;2.83;1.73;;;23.20;99.90;;;;;;5090499;28;20100;-72
2021/05/09 10:30:06;;;;;;;2.80;1.65;;;23.20;99.90;;;;;;5089570;28;20388;-72
2021/05/09 10:32:35;;;;;;;2.40;1.90;;;23.30;99.90;;;;;;5090704;28;20016;-72
2021/05/09 10:35:08;;;;;;;2.33;1.58;;;23.40;99.90;;;;;;5090125;28;20035;-72
2021/05/09 10:40:32;;;;;;;3.25;1.90;;;23.60;99.90;;;;;;5089488;28;20032;-72
2021/05/09 10:45:35;;;;;;;1.45;1.35;;;23.90;99.90;;;;;;5090007;28;20028;-72
2021/05/09 10:48:13;;;;;;;3.10;1.88;;;24.00;98.90;;;;;;5090158;28;20024;-72
2021/05/09 10:50:48;;;;;;;2.70;1.60;;;24.00;99.90;;;;;;5102524;28;20024;-72
2021/05/09 10:53:33;;;;;;;3.53;1.40;;;24.30;97.50;;;;;;5088298;28;20051;-72
2021/05/09 10:56:19;;;;;;;2.13;1.65;;;24.30;96.60;;;;;;5088191;28;20039;-72
2021/05/09 10:58:48;;;;;;;1.60;1.50;;;24.30;96.10;;;;;;5072947;28;20052;-72
2021/05/09 11:01:29;;;;;;;4.28;1.98;;;24.40;96.30;;;;;;5089803;28;20364;-72
2021/05/09 11:03:56;;;;;;;3.22;1.40;;;24.60;95.80;;;;;;5086332;28;20019;-72
2021/05/09 11:06:28;;;;;;;1.55;1.45;;;24.90;96.10;;;;;;5087087;28;20253;-72
2021/05/09 11:09:17;;;;;;;2.58;1.73;;;24.80;93.10;;;;;;5089015;28;20470;-72
2021/05/09 11:11:46;;;;;;;2.20;1.67;;;24.80;93.10;;;;;;5088317;28;20016;-72
2021/05/09 11:14:11;;;;;;;1.77;1.60;;;25.00;94.60;;;;;;5086057;28;20150;-72
2021/05/09 11:16:42;;;;;;;1.63;1.48;;;25.00;92.90;;;;;;5087752;28;20481;-72
2021/05/09 11:19:09;;;;;;;1.60;1.50;;;25.10;92.40;;;;;;5087392;28;20028;-72
2021/05/09 11:21:38;;;;;;;2.10;1.63;;;25.20;91.60;;;;;;5088472;28;20048;-72
2021/05/09 11:24:11;;;;;;;2.00;1.63;;;25.40;91.90;;;;;;5089119;28;20020;-72
2021/05/09 11:26:38;;;;;;;2.03;1.83;;;25.40;91.20;;;;;;5087677;28;20029;-72
2021/05/09 11:29:12;;;;;;;1.70;1.60;;;25.40;91.10;;;;;;5089215;28;20497;-72
2021/05/09 11:31:41;;;;;;;1.52;1.38;;;25.50;89.50;;;;;;5089647;28;20020;-72
2021/05/09 11:34:07;;;;;;;3.85;1.92;;;25.60;88.80;;;;;;5077592;28;20394;-72
2021/05/09 11:36:35;;;;;;;1.40;1.30;;;25.70;87.40;;;;;;5069570;28;20558;-72
2021/05/09 11:39:11;;;;;;;2.42;1.50;;;25.90;88.30;;;;;;5084185;28;20395;-72
2021/05/09 11:41:56;;;;;;;1.95;1.45;;;26.00;86.10;;;;;;5090545;28;20391;-72
2021/05/09 11:44:22;;;;;;;2.92;1.63;;;26.00;89.30;;;;;;5091863;28;20020;-72
2021/05/09 11:46:48;;;;;;;4.57;1.55;;;26.00;87.10;;;;;;5090450;28;20020;-72
2021/05/09 11:49:26;;;;;;;4.15;1.70;;;26.10;86.90;;;;;;5091538;28;20169;-72
2021/05/09 11:52:10;;;;;;;2.72;1.40;;;26.10;84.90;;;;;;5091150;28;20026;-72
2021/05/09 11:54:37;;;;;;;3.53;1.50;;;26.40;86.00;;;;;;5071560;28;20115;-72
2021/05/09 11:57:08;;;;;;;4.60;2.03;;;26.40;81.60;;;;;;5071300;28;20484;-72
2021/05/09 11:59:38;;;;;;;4.07;1.70;;;26.40;85.20;;;;;;5077774;28;20166;-72
2021/05/09 12:02:10;;;;;;;1.70;1.60;;;26.60;82.70;;;;;;5078078;28;20048;-72
2021/05/09 12:04:36;;;;;;;2.40;1.60;;;26.60;82.50;;;;;;5090440;28;20028;-72
2021/05/09 12:07:03;;;;;;;2.47;1.50;;;26.70;81.40;;;;;;5091798;28;20036;-73
2021/05/09 12:09:30;;;;;;;1.60;1.50;;;26.70;79.50;;;;;;5081759;28;20024;-72
2021/05/09 12:11:57;;;;;;;2.25;1.88;;;26.80;81.90;;;;;;5085039;28;20027;-72
2021/05/09 12:14:24;;;;;;;2.33;1.58;;;27.10;81.60;;;;;;5080957;28;20024;-72
2021/05/09 12:16:50;;;;;;;2.13;1.90;;;27.10;78.10;;;;;;5078017;28;20379;-73
2021/05/09 12:19:16;;;;;;;4.65;1.60;;;27.10;81.40;;;;;;5081545;28;20502;-72
2021/05/09 12:21:56;;;;;;;1.60;1.50;;;27.20;79.20;;;;;;5074239;28;20016;-73
2021/05/09 12:24:22;;;;;;;1.70;1.60;;;27.20;77.70;;;;;;5079611;28;20097;-73
2021/05/09 12:27:08;;;;;;;2.38;1.70;;;27.40;78.70;;;;;;5069810;28;20040;-73
2021/05/09 12:29:44;;;;;;;3.72;1.95;;;27.40;76.30;;;;;;5084614;28;20024;-73
2021/05/09 12:32:30;;;;;;;2.17;1.75;;;27.60;74.90;;;;;;5079046;28;20052;-71
2021/05/09 12:35:12;;;;;;;3.27;1.80;;;27.50;74.60;;;;;;5077661;28;20035;-72
2021/05/09 12:37:49;;;;;;;2.95;1.80;;;27.70;77.50;;;;;;5077658;28;20401;-72
2021/05/09 12:40:23;;;;;;;2.63;1.60;;;28.20;76.50;;;;;;5082004;28;20114;-73
2021/05/09 12:42:56;;;;;;;2.75;2.05;;;28.30;75.80;;;;;;5086608;28;20044;-72
2021/05/09 12:45:34;;;;;;;2.17;1.88;;;28.20;75.20;;;;;;5091366;28;20020;-73
2021/05/09 12:48:07;;;;;;;2.20;2.00;;;28.30;73.70;;;;;;5091136;28;20505;-72
2021/05/09 12:50:56;;;;;;;2.10;2.00;;;28.70;75.10;;;;;;5078268;28;20028;-73
2021/05/09 12:53:35;;;;;;;1.75;1.63;;;28.90;75.90;;;;;;5083451;28;20032;-73
2021/05/09 12:56:17;;;;;;;2.13;1.85;;;28.90;73.30;;;;;;5073223;28;20029;-73
2021/05/09 12:59:04;;;;;;;2.05;1.90;;;29.20;73.00;;;;;;5074166;28;20035;-72
2021/05/09 13:01:32;;;;;;;2.00;1.80;;;29.40;72.10;;;;;;5085284;28;20055;-72
2021/05/09 13:03:58;;;;;;;3.33;1.85;;;29.30;71.30;;;;;;5081119;28;20081;-73